createdAt,value
2022-08-30T00:00:07.449Z,14.33
2022-08-30T00:02:36.983Z,14.33
2022-08-30T00:05:06.310Z,12.00
2022-08-30T00:07:36.059Z,14.00
2022-08-30T00:10:06.226Z,15.67
2022-08-30T00:12:36.066Z,12.50
2022-08-30T00:15:07.286Z,14.00
2022-08-30T00:17:37.793Z,14.00
2022-08-30T00:20:12.178Z,16.67
2022-08-30T00:22:41.616Z,15.00
2022-08-30T00:25:11.012Z,14.33
2022-08-30T00:27:40.656Z,13.00
2022-08-30T00:30:12.822Z,15.00
2022-08-30T00:32:42.005Z,12.67
2022-08-30T00:35:15.211Z,13.67
2022-08-30T00:37:44.633Z,14.50
2022-08-30T00:40:16.135Z,12.67
2022-08-30T00:42:50.653Z,13.50
2022-08-30T00:45:31.906Z,14.00
2022-08-30T00:48:01.863Z,13.00
2022-08-30T00:50:45.353Z,12.00
2022-08-30T00:53:22.546Z,12.33
2022-08-30T00:55:53.159Z,13.00
2022-08-30T00:58:36.928Z,13.33
2022-08-30T01:01:08.575Z,11.33
2022-08-30T01:03:39.389Z,12.67
2022-08-30T01:06:08.989Z,14.00
2022-08-30T01:08:39.200Z,15.00
2022-08-30T01:11:08.928Z,15.00
2022-08-30T01:13:37.574Z,13.00
2022-08-30T01:16:06.773Z,12.33
2022-08-30T01:18:39.535Z,13.33
2022-08-30T01:21:57.637Z,14.33
2022-08-30T01:24:26.941Z,11.33
2022-08-30T01:26:56.004Z,14.50
2022-08-30T01:29:27.133Z,15.00
2022-08-30T01:31:55.661Z,15.00
2022-08-30T01:34:25.751Z,13.50
2022-08-30T01:36:54.427Z,15.50
2022-08-30T01:39:23.275Z,14.67
2022-08-30T01:41:52.991Z,15.00
2022-08-30T01:44:21.615Z,13.00
2022-08-30T01:46:50.265Z,13.00
2022-08-30T01:49:27.572Z,14.50
2022-08-30T01:52:00.702Z,13.00
2022-08-30T01:54:38.333Z,16.00
2022-08-30T01:57:11.942Z,14.67
2022-08-30T01:59:47.705Z,14.33
2022-08-30T02:02:26.101Z,14.00
2022-08-30T02:04:56.717Z,14.00
2022-08-30T02:07:27.578Z,13.50
2022-08-30T02:09:56.968Z,14.00
2022-08-30T02:12:26.126Z,16.00
2022-08-30T02:14:54.776Z,16.00
2022-08-30T02:17:23.434Z,15.67
2022-08-30T02:19:52.966Z,15.67
2022-08-30T02:22:21.517Z,14.00
2022-08-30T02:24:50.241Z,15.50
2022-08-30T02:27:19.047Z,13.50
2022-08-30T02:29:47.805Z,14.00
2022-08-30T02:32:16.378Z,14.33
2022-08-30T02:34:47.393Z,16.00
2022-08-30T02:37:16.149Z,15.00
2022-08-30T02:39:45.592Z,16.00
2022-08-30T02:42:14.231Z,17.33
2022-08-30T02:44:42.834Z,17.00
2022-08-30T02:47:12.510Z,16.67
2022-08-30T02:49:41.162Z,14.33
2022-08-30T02:52:10.599Z,14.00
2022-08-30T02:54:39.223Z,16.00
2022-08-30T02:57:19.996Z,15.67
2022-08-30T02:59:49.869Z,12.00
2022-08-30T03:02:18.787Z,15.33
2022-08-30T03:04:49.163Z,16.33
2022-08-30T03:07:18.493Z,13.33
2022-08-30T03:09:47.148Z,16.67
2022-08-30T03:12:16.248Z,16.33
2022-08-30T03:14:44.996Z,16.00
2022-08-30T03:17:15.700Z,18.33
2022-08-30T03:19:46.308Z,17.00
2022-08-30T03:22:15.253Z,18.00
2022-08-30T03:24:45.989Z,17.33
2022-08-30T03:27:14.901Z,16.00
2022-08-30T03:29:43.614Z,18.67
2022-08-30T03:32:12.321Z,17.00
2022-08-30T03:34:41.337Z,17.00
2022-08-30T03:37:10.121Z,17.67
2022-08-30T03:39:39.024Z,20.00
2022-08-30T03:42:07.929Z,16.00
2022-08-30T03:44:38.079Z,17.00
2022-08-30T03:47:08.596Z,14.33
2022-08-30T03:49:37.497Z,16.00
2022-08-30T03:52:06.484Z,18.67
2022-08-30T03:54:35.274Z,9.00
2022-08-30T03:57:06.546Z,16.00
2022-08-30T03:59:35.694Z,19.00
2022-08-30T04:02:05.373Z,16.00
2022-08-30T04:04:34.135Z,16.33
2022-08-30T04:07:02.879Z,16.33
2022-08-30T04:09:31.704Z,18.00
2022-08-30T04:12:00.404Z,18.67
2022-08-30T04:14:29.874Z,17.00
2022-08-30T04:16:58.579Z,16.00
2022-08-30T04:19:27.231Z,17.33
2022-08-30T04:21:57.486Z,17.00
2022-08-30T04:24:26.170Z,17.67
2022-08-30T04:26:54.791Z,16.33
2022-08-30T04:29:24.226Z,14.00
2022-08-30T04:31:52.994Z,18.00
2022-08-30T04:34:24.578Z,17.00
2022-08-30T04:36:53.360Z,17.67
2022-08-30T04:39:22.232Z,18.33
2022-08-30T04:41:50.906Z,18.00
2022-08-30T04:44:19.803Z,18.00
2022-08-30T04:46:49.174Z,18.00
2022-08-30T04:49:17.945Z,14.67
2022-08-30T04:51:47.475Z,17.67
2022-08-30T04:54:16.374Z,18.67
2022-08-30T04:56:45.076Z,18.00
2022-08-30T04:59:14.205Z,18.33
2022-08-30T05:01:45.490Z,16.00
2022-08-30T05:04:28.134Z,17.00
2022-08-30T05:06:56.926Z,19.00
2022-08-30T05:09:25.518Z,14.67
2022-08-30T05:11:54.132Z,16.67
2022-08-30T05:14:22.746Z,17.33
2022-08-30T05:16:51.463Z,18.00
2022-08-30T05:19:20.111Z,17.00
2022-08-30T05:21:48.703Z,15.67
2022-08-30T05:24:17.427Z,16.67
2022-08-30T05:26:46.073Z,17.00
2022-08-30T05:29:15.552Z,18.00
2022-08-30T05:31:45.317Z,17.67
2022-08-30T05:34:17.151Z,15.88
2022-08-30T05:36:58.263Z,16.00
2022-08-30T05:39:27.004Z,16.67
2022-08-30T05:42:00.096Z,17.33
2022-08-30T05:44:28.713Z,16.67
2022-08-30T05:46:57.364Z,15.33
2022-08-30T05:49:25.987Z,17.33
2022-08-30T05:51:54.601Z,18.67
2022-08-30T05:54:23.200Z,13.33
2022-08-30T05:56:51.847Z,16.67
2022-08-30T05:59:20.493Z,16.00
2022-08-30T06:01:49.188Z,17.33
2022-08-30T06:04:18.630Z,16.00
2022-08-30T06:06:47.216Z,13.33
2022-08-30T06:09:16.426Z,15.67
2022-08-30T06:11:46.471Z,16.33
2022-08-30T06:14:15.950Z,14.67
2022-08-30T06:16:47.642Z,13.00
2022-08-30T06:19:17.144Z,14.00
2022-08-30T06:21:50.795Z,15.00
2022-08-30T06:24:20.785Z,14.00
2022-08-30T06:26:56.629Z,14.00
2022-08-30T06:29:26.090Z,14.33
2022-08-30T06:31:55.209Z,14.33
2022-08-30T06:34:24.104Z,14.33
2022-08-30T06:36:52.659Z,13.00
2022-08-30T06:39:22.386Z,13.00
2022-08-30T06:41:51.036Z,13.50
2022-08-30T06:44:19.676Z,11.50
2022-08-30T06:46:48.417Z,12.00
2022-08-30T06:49:17.397Z,12.00
2022-08-30T06:51:45.942Z,12.00
2022-08-30T06:54:14.583Z,11.67
2022-08-30T06:56:57.695Z,12.00
2022-08-30T06:59:27.995Z,9.00
2022-08-30T07:01:57.791Z,12.00
2022-08-30T07:04:27.320Z,12.50
2022-08-30T07:06:55.755Z,12.67
2022-08-30T07:09:25.328Z,11.50
2022-08-30T07:11:54.578Z,13.00
2022-08-30T07:14:24.103Z,11.00
2022-08-30T07:16:52.704Z,10.50
2022-08-30T07:19:22.449Z,10.00
2022-08-30T07:21:51.220Z,10.00
2022-08-30T07:24:20.686Z,10.67
2022-08-30T07:26:52.319Z,10.33
2022-08-30T07:29:21.559Z,11.00
2022-08-30T07:31:50.330Z,11.00
2022-08-30T07:34:22.297Z,11.00
2022-08-30T07:36:52.033Z,13.00
2022-08-30T07:39:21.221Z,12.33
2022-08-30T07:41:50.945Z,12.33
2022-08-30T07:44:19.967Z,12.00
2022-08-30T07:46:52.173Z,12.00
2022-08-30T07:49:20.860Z,11.50
2022-08-30T07:51:49.401Z,7.67
2022-08-30T07:54:18.059Z,12.67
2022-08-30T07:56:46.736Z,12.67
2022-08-30T07:59:15.924Z,12.00
2022-08-30T08:01:44.640Z,14.00
2022-08-30T08:04:13.206Z,12.33
2022-08-30T08:06:42.722Z,11.00
2022-08-30T08:09:12.244Z,11.67
2022-08-30T08:11:41.929Z,14.00
2022-08-30T08:14:11.596Z,11.50
2022-08-30T08:16:42.485Z,13.00
2022-08-30T08:19:12.437Z,13.50
2022-08-30T08:21:41.362Z,11.00
2022-08-30T08:24:10.070Z,13.00
2022-08-30T08:26:40.910Z,12.50
2022-08-30T08:29:13.946Z,13.00
2022-08-30T08:31:43.353Z,13.00
2022-08-30T08:34:13.451Z,14.00
2022-08-30T08:36:42.574Z,13.00
2022-08-30T08:39:11.209Z,14.00
2022-08-30T08:42:06.891Z,12.33
2022-08-30T08:45:12.230Z,13.00
2022-08-30T08:48:52.002Z,12.00
2022-08-30T08:51:47.685Z,12.00
2022-08-30T08:54:31.303Z,13.33
2022-08-30T08:57:01.078Z,11.00
2022-08-30T08:59:29.883Z,16.67
2022-08-30T09:02:07.165Z,13.33
2022-08-30T09:04:40.192Z,12.00
2022-08-30T09:07:26.711Z,13.33
2022-08-30T09:09:55.649Z,12.00
2022-08-30T09:12:24.242Z,13.67
2022-08-30T09:15:16.279Z,12.00
2022-08-30T09:17:57.018Z,12.33
2022-08-30T09:20:32.483Z,13.33
2022-08-30T09:23:27.773Z,13.67
2022-08-30T09:26:09.665Z,13.33
2022-08-30T09:28:53.809Z,14.00
2022-08-30T09:31:31.139Z,11.50
2022-08-30T09:34:08.633Z,12.00
2022-08-30T09:36:53.718Z,11.33
2022-08-30T09:39:37.833Z,13.33
2022-08-30T09:42:24.927Z,13.00
2022-08-30T09:45:10.641Z,10.33
2022-08-30T09:47:43.980Z,12.00
2022-08-30T09:50:24.094Z,10.00
2022-08-30T09:53:23.737Z,10.67
2022-08-30T09:56:10.416Z,12.50
2022-08-30T09:59:27.104Z,11.00
2022-08-30T10:02:48.330Z,14.33
2022-08-30T10:05:53.509Z,15.00
2022-08-30T10:08:52.317Z,12.33
2022-08-30T10:12:05.203Z,15.67
2022-08-30T10:14:46.241Z,9.00
2022-08-30T10:17:44.905Z,9.33
2022-08-30T10:20:22.283Z,10.00
2022-08-30T10:23:54.153Z,9.00
2022-08-30T10:26:42.974Z,9.33
2022-08-30T10:29:31.275Z,9.00
2022-08-30T10:32:11.570Z,10.00
2022-08-30T10:35:04.171Z,9.67
2022-08-30T10:38:14.807Z,10.50
2022-08-30T10:41:09.069Z,10.00
2022-08-30T10:43:57.807Z,10.00
2022-08-30T10:47:23.453Z,10.33
2022-08-30T10:50:19.633Z,6.00
2022-08-30T10:52:59.366Z,11.00
2022-08-30T10:55:50.460Z,9.67
2022-08-30T10:58:20.103Z,8.33
2022-08-30T11:01:35.727Z,7.00
2022-08-30T11:05:01.332Z,9.00
2022-08-30T11:08:52.189Z,8.67
2022-08-30T11:12:17.200Z,10.00
2022-08-30T11:14:47.727Z,9.33
2022-08-30T11:17:44.613Z,8.67
2022-08-30T11:20:50.313Z,9.00
2022-08-30T11:23:32.707Z,8.00
2022-08-30T11:26:21.277Z,8.00
2022-08-30T11:28:49.659Z,8.00
2022-08-30T11:31:24.181Z,9.00
2022-08-30T11:33:57.799Z,8.33
2022-08-30T11:36:37.812Z,4.00
2022-08-30T11:39:13.816Z,8.33
2022-08-30T11:41:48.610Z,8.00
2022-08-30T11:44:22.849Z,6.33
2022-08-30T11:46:56.174Z,7.33
2022-08-30T11:49:46.465Z,7.33
2022-08-30T11:52:43.239Z,6.67
2022-08-30T11:55:55.100Z,8.33
2022-08-30T11:58:52.329Z,7.00
2022-08-30T12:01:50.927Z,6.67
2022-08-30T12:04:19.689Z,8.33
2022-08-30T12:07:08.771Z,9.00
2022-08-30T12:09:37.792Z,6.33
2022-08-30T12:12:47.772Z,7.00
2022-08-30T12:16:03.435Z,8.00
2022-08-30T12:18:57.355Z,8.00
2022-08-30T12:21:43.597Z,7.00
2022-08-30T12:24:44.919Z,6.67
2022-08-30T12:27:33.301Z,8.67
2022-08-30T12:30:08.484Z,8.33
2022-08-30T12:32:50.676Z,7.67
2022-08-30T12:35:28.587Z,8.67
2022-08-30T12:38:18.533Z,7.33
2022-08-30T12:41:00.597Z,7.67
2022-08-30T12:43:41.629Z,8.33
2022-08-30T12:46:16.210Z,7.00
2022-08-30T12:48:46.173Z,8.67
2022-08-30T12:51:41.443Z,7.00
2022-08-30T12:54:23.339Z,7.67
2022-08-30T12:57:13.972Z,7.00
2022-08-30T12:59:59.623Z,7.67
2022-08-30T13:02:54.467Z,7.00
2022-08-30T13:05:45.034Z,8.00
2022-08-30T13:08:22.942Z,7.00
2022-08-30T13:11:22.860Z,7.00
2022-08-30T13:14:43.962Z,9.00
2022-08-30T13:17:28.477Z,7.00
2022-08-30T13:20:24.965Z,9.00
2022-08-30T13:23:09.117Z,6.00
2022-08-30T13:25:40.098Z,7.00
2022-08-30T13:29:35.445Z,7.33
2022-08-30T13:32:04.130Z,6.00
2022-08-30T13:34:35.329Z,7.00
2022-08-30T13:37:04.562Z,6.33
2022-08-30T13:39:34.948Z,8.00
2022-08-30T13:44:55.243Z,2.67
2022-08-30T13:47:39.176Z,6.67
2022-08-30T13:50:08.404Z,7.33
2022-08-30T13:52:38.970Z,10.00
2022-08-30T13:55:08.748Z,6.00
2022-08-30T14:00:27.846Z,6.33
2022-08-30T14:02:57.438Z,8.00
2022-08-30T14:06:05.189Z,7.33
2022-08-30T14:08:49.018Z,7.33
2022-08-30T14:11:31.322Z,6.00
2022-08-30T14:14:17.217Z,7.00
2022-08-30T14:16:48.516Z,5.00
2022-08-30T14:19:18.532Z,9.00
2022-08-30T14:21:49.097Z,7.00
2022-08-30T14:24:20.201Z,8.33
2022-08-30T14:26:53.153Z,8.00
2022-08-30T14:29:26.354Z,9.00
2022-08-30T14:31:59.870Z,7.33
2022-08-30T14:34:29.032Z,6.33
2022-08-30T14:36:58.378Z,7.67
2022-08-30T14:39:27.496Z,7.00
2022-08-30T14:41:57.278Z,7.00
2022-08-30T14:44:26.683Z,6.33
2022-08-30T14:46:56.697Z,6.33
2022-08-30T14:49:26.690Z,8.00
2022-08-30T14:51:55.824Z,6.00
2022-08-30T14:54:28.789Z,6.67
2022-08-30T14:56:58.555Z,7.00
2022-08-30T14:59:27.659Z,7.00
2022-08-30T15:01:56.207Z,6.00
2022-08-30T15:04:25.230Z,7.00
2022-08-30T15:06:54.359Z,7.00
2022-08-30T15:09:24.943Z,7.67
2022-08-30T15:11:58.643Z,6.33
2022-08-30T15:14:29.217Z,6.00
2022-08-30T15:17:00.280Z,7.67
2022-08-30T15:19:30.195Z,9.00
2022-08-30T15:22:07.265Z,6.67
2022-08-30T15:24:37.036Z,8.00
2022-08-30T15:27:06.160Z,7.00
2022-08-30T15:29:36.174Z,5.67
2022-08-30T15:32:06.062Z,8.00
2022-08-30T15:34:35.243Z,6.33
2022-08-30T15:37:05.281Z,6.67
2022-08-30T15:39:37.077Z,7.33
2022-08-30T15:42:05.789Z,7.33
2022-08-30T15:44:34.626Z,6.00
2022-08-30T15:47:03.975Z,8.00
2022-08-30T15:49:32.763Z,6.67
2022-08-30T15:52:05.998Z,8.00
2022-08-30T15:54:36.921Z,7.67
2022-08-30T15:57:05.821Z,6.67
2022-08-30T15:59:34.525Z,7.33
2022-08-30T16:02:03.181Z,8.33
2022-08-30T16:04:31.895Z,9.00
2022-08-30T16:07:00.664Z,8.00
2022-08-30T16:09:30.115Z,8.33
2022-08-30T16:12:04.854Z,10.00
2022-08-30T16:14:34.378Z,8.67
2022-08-30T16:17:03.302Z,11.00
2022-08-30T16:19:32.187Z,9.00
2022-08-30T16:22:01.260Z,9.00
2022-08-30T16:24:29.952Z,10.00
2022-08-30T16:26:58.465Z,9.00
2022-08-30T16:29:27.116Z,9.33
2022-08-30T16:32:01.935Z,10.00
2022-08-30T16:34:31.898Z,11.67
2022-08-30T16:37:01.985Z,10.00
2022-08-30T16:39:30.598Z,9.00
2022-08-30T16:42:03.364Z,13.00
2022-08-30T16:44:36.044Z,12.67
2022-08-30T16:47:04.790Z,12.00
2022-08-30T16:49:33.382Z,10.00
2022-08-30T16:52:02.381Z,11.00
2022-08-30T16:54:32.185Z,12.00
2022-08-30T16:57:01.371Z,10.33
2022-08-30T16:59:30.058Z,9.00
2022-08-30T17:02:00.933Z,11.67
2022-08-30T17:04:29.802Z,11.50
2022-08-30T17:06:58.763Z,12.00
2022-08-30T17:09:27.422Z,9.00
2022-08-30T17:11:56.446Z,9.50
2022-08-30T17:14:28.047Z,12.00
2022-08-30T17:17:00.886Z,10.00
2022-08-30T17:19:30.527Z,10.00
2022-08-30T17:22:00.508Z,10.00
2022-08-30T17:24:29.944Z,11.00
2022-08-30T17:26:58.595Z,11.67
2022-08-30T17:29:27.797Z,13.33
2022-08-30T17:31:57.121Z,11.33
2022-08-30T17:34:28.490Z,12.67
2022-08-30T17:37:00.137Z,12.50
2022-08-30T17:39:29.937Z,11.67
2022-08-30T17:41:58.826Z,14.00
2022-08-30T17:44:34.538Z,13.00
2022-08-30T17:47:03.239Z,12.00
2022-08-30T17:49:40.922Z,12.50
2022-08-30T17:52:11.498Z,13.00
2022-08-30T17:54:41.656Z,12.67
2022-08-30T17:57:13.182Z,12.33
2022-08-30T17:59:43.322Z,13.33
2022-08-30T18:02:13.640Z,12.67
2022-08-30T18:04:44.125Z,12.50
2022-08-30T18:07:18.704Z,11.00
2022-08-30T18:09:49.299Z,12.00
2022-08-30T18:12:18.029Z,10.33
2022-08-30T18:14:47.240Z,12.00
2022-08-30T18:17:22.058Z,12.00
2022-08-30T18:19:51.023Z,13.33
2022-08-30T18:22:19.644Z,12.50
2022-08-30T18:24:49.257Z,16.00
2022-08-30T18:27:17.990Z,19.00
2022-08-30T18:29:47.297Z,14.67
2022-08-30T18:32:16.095Z,13.00
2022-08-30T18:34:44.918Z,11.50
2022-08-30T18:37:14.209Z,12.50
2022-08-30T18:39:45.637Z,11.00
2022-08-30T18:42:16.191Z,12.33
2022-08-30T18:44:45.136Z,11.00
2022-08-30T18:47:13.720Z,10.67
2022-08-30T18:49:43.019Z,9.67
2022-08-30T18:52:12.140Z,10.67
2022-08-30T18:54:52.824Z,10.67
2022-08-30T18:57:23.165Z,10.33
2022-08-30T18:59:51.788Z,9.00
2022-08-30T19:02:20.510Z,11.00
2022-08-30T19:04:52.030Z,9.33
2022-08-30T19:07:21.800Z,11.00
2022-08-30T19:09:58.899Z,8.67
2022-08-30T19:12:27.733Z,9.00
2022-08-30T19:14:57.115Z,9.00
2022-08-30T19:17:27.148Z,11.00
2022-08-30T19:19:55.856Z,10.67
2022-08-30T19:22:26.845Z,9.67
2022-08-30T19:24:57.306Z,10.67
2022-08-30T19:27:38.459Z,9.00
2022-08-30T19:30:21.589Z,10.00
2022-08-30T19:32:52.821Z,10.00
2022-08-30T19:35:22.493Z,7.67
2022-08-30T19:37:51.084Z,7.67
2022-08-30T19:40:21.402Z,9.33
2022-08-30T19:42:51.613Z,7.67
2022-08-30T19:45:23.158Z,6.67
2022-08-30T19:47:53.402Z,8.67
2022-08-30T19:50:22.982Z,6.67
2022-08-30T19:52:54.838Z,9.33
2022-08-30T19:55:31.285Z,9.00
2022-08-30T19:58:00.330Z,8.00
2022-08-30T20:00:31.444Z,9.00
2022-08-30T20:03:01.741Z,9.33
2022-08-30T20:05:32.085Z,9.00
2022-08-30T20:08:01.123Z,8.67
2022-08-30T20:10:30.175Z,9.00
2022-08-30T20:12:59.787Z,7.67
2022-08-30T20:15:31.352Z,8.86
2022-08-30T20:18:06.121Z,7.00
2022-08-30T20:20:49.464Z,9.33
2022-08-30T20:23:22.998Z,10.00
2022-08-30T20:25:54.831Z,9.00
2022-08-30T20:28:25.606Z,8.00
2022-08-30T20:30:56.107Z,10.00
2022-08-30T20:33:25.943Z,9.00
2022-08-30T20:35:54.691Z,8.67
2022-08-30T20:38:24.006Z,9.33
2022-08-30T20:40:58.677Z,9.00
2022-08-30T20:43:31.728Z,9.00
2022-08-30T20:46:17.119Z,9.67
2022-08-30T20:48:47.967Z,10.00
2022-08-30T20:51:23.196Z,10.00
2022-08-30T20:54:03.414Z,9.00
2022-08-30T20:56:32.399Z,9.00
2022-08-30T20:59:03.569Z,9.67
2022-08-30T21:01:38.563Z,10.67
2022-08-30T21:04:08.202Z,8.67
2022-08-30T21:06:37.810Z,9.00
2022-08-30T21:09:09.037Z,9.33
2022-08-30T21:11:38.503Z,11.00
2022-08-30T21:14:13.537Z,10.00
2022-08-30T21:16:42.664Z,9.00
2022-08-30T21:19:11.133Z,9.67
2022-08-30T21:21:40.163Z,8.00
2022-08-30T21:24:10.488Z,11.67
2022-08-30T21:26:41.707Z,9.33
2022-08-30T21:29:12.562Z,9.00
2022-08-30T21:31:41.331Z,9.00
2022-08-30T21:34:17.470Z,7.33
2022-08-30T21:36:47.766Z,8.40
2022-08-30T21:39:27.356Z,7.00
2022-08-30T21:41:57.530Z,7.33
2022-08-30T21:44:27.646Z,9.67
2022-08-30T21:46:56.303Z,8.00
2022-08-30T21:49:25.507Z,9.00
2022-08-30T21:51:55.530Z,10.00
2022-08-30T21:54:29.369Z,8.33
2022-08-30T21:57:02.338Z,9.00
2022-08-30T21:59:31.542Z,8.33
2022-08-30T22:02:00.119Z,8.00
2022-08-30T22:04:29.661Z,8.33
2022-08-30T22:06:59.439Z,9.00
2022-08-30T22:09:27.893Z,9.00
2022-08-30T22:11:56.682Z,9.33
2022-08-30T22:14:26.510Z,9.00
2022-08-30T22:16:55.760Z,8.00
2022-08-30T22:19:25.056Z,9.00
2022-08-30T22:22:00.664Z,9.67
2022-08-30T22:24:32.627Z,8.00
2022-08-30T22:27:05.179Z,8.00
2022-08-30T22:29:34.170Z,10.00
2022-08-30T22:32:04.269Z,8.20
2022-08-30T22:34:33.128Z,9.00
2022-08-30T22:37:01.841Z,9.33
2022-08-30T22:39:30.510Z,8.00
2022-08-30T22:41:58.964Z,11.33
2022-08-30T22:44:27.636Z,8.00
2022-08-30T22:46:56.030Z,9.00
2022-08-30T22:49:24.485Z,10.00
2022-08-30T22:51:53.181Z,9.67
2022-08-30T22:54:21.763Z,9.00
2022-08-30T22:56:50.360Z,8.67
2022-08-30T22:59:18.838Z,7.67
2022-08-30T23:01:47.690Z,11.00
2022-08-30T23:04:29.503Z,10.00
2022-08-30T23:06:58.102Z,9.67
2022-08-30T23:09:29.088Z,8.00
2022-08-30T23:11:57.818Z,10.00
2022-08-30T23:14:26.758Z,8.67
2022-08-30T23:16:55.701Z,10.67
2022-08-30T23:19:24.431Z,10.00
2022-08-30T23:21:52.971Z,9.00
2022-08-30T23:24:40.781Z,6.00
2022-08-30T23:27:33.198Z,9.00
2022-08-30T23:30:20.177Z,8.00
2022-08-30T23:33:06.941Z,9.00
2022-08-30T23:35:56.479Z,5.00
2022-08-30T23:38:43.600Z,8.00
2022-08-30T23:41:34.133Z,10.00
2022-08-30T23:44:22.155Z,8.00
2022-08-30T23:47:09.493Z,9.00
2022-08-30T23:49:56.782Z,8.00
2022-08-30T23:52:43.767Z,8.67
2022-08-30T23:55:31.620Z,8.40
2022-08-30T23:58:18.631Z,7.67
